sensor_id;sensor_type;location;lat;lon;timestamp;P1;durP1;ratioP1;P2;durP2;ratioP2
26742;SDS011;14341;51.256;22.478;2023-04-01T00:00:18;59.88;;;37.00;;
26742;SDS011;14341;51.256;22.478;2023-04-01T00:03:23;62.83;;;36.70;;
26742;SDS011;14341;51.256;22.478;2023-04-01T00:06:28;63.97;;;37.35;;
26742;SDS011;14341;51.256;22.478;2023-04-01T00:09:33;59.70;;;36.83;;
26742;SDS011;14341;51.256;22.478;2023-04-01T00:12:36;59.92;;;36.08;;
26742;SDS011;14341;51.256;22.478;2023-04-01T00:15:40;62.33;;;36.78;;
26742;SDS011;14341;51.256;22.478;2023-04-01T00:18:44;58.72;;;36.90;;
26742;SDS011;14341;51.256;22.478;2023-04-01T00:21:48;64.20;;;37.60;;
26742;SDS011;14341;51.256;22.478;2023-04-01T00:24:54;60.70;;;37.90;;
26742;SDS011;14341;51.256;22.478;2023-04-01T00:27:58;64.18;;;39.00;;
26742;SDS011;14341;51.256;22.478;2023-04-01T00:31:04;65.40;;;39.42;;
26742;SDS011;14341;51.256;22.478;2023-04-01T00:34:08;66.60;;;40.38;;
26742;SDS011;14341;51.256;22.478;2023-04-01T00:37:12;62.03;;;37.88;;
26742;SDS011;14341;51.256;22.478;2023-04-01T00:40:23;67.55;;;39.33;;
26742;SDS011;14341;51.256;22.478;2023-04-01T00:43:28;69.90;;;41.00;;
26742;SDS011;14341;51.256;22.478;2023-04-01T00:46:31;74.43;;;41.92;;
26742;SDS011;14341;51.256;22.478;2023-04-01T00:49:37;71.43;;;40.97;;
26742;SDS011;14341;51.256;22.478;2023-04-01T00:52:43;67.40;;;41.00;;
26742;SDS011;14341;51.256;22.478;2023-04-01T00:55:49;71.03;;;41.72;;
26742;SDS011;14341;51.256;22.478;2023-04-01T00:58:57;71.55;;;41.47;;
26742;SDS011;14341;51.256;22.478;2023-04-01T01:02:03;68.13;;;39.50;;
26742;SDS011;14341;51.256;22.478;2023-04-01T01:05:10;69.68;;;40.50;;
26742;SDS011;14341;51.256;22.478;2023-04-01T01:08:17;61.08;;;39.45;;
26742;SDS011;14341;51.256;22.478;2023-04-01T01:11:35;63.38;;;40.15;;
26742;SDS011;14341;51.256;22.478;2023-04-01T01:14:55;70.05;;;39.95;;
26742;SDS011;14341;51.256;22.478;2023-04-01T01:18:06;49.00;;;32.38;;
26742;SDS011;14341;51.256;22.478;2023-04-01T01:25:01;65.50;;;39.05;;
26742;SDS011;14341;51.256;22.478;2023-04-01T01:28:24;68.38;;;38.53;;
26742;SDS011;14341;51.256;22.478;2023-04-01T01:31:39;66.88;;;38.33;;
26742;SDS011;14341;51.256;22.478;2023-04-01T01:34:50;62.72;;;38.92;;
26742;SDS011;14341;51.256;22.478;2023-04-01T01:38:02;58.63;;;37.88;;
26742;SDS011;14341;51.256;22.478;2023-04-01T01:41:07;71.78;;;40.65;;
26742;SDS011;14341;51.256;22.478;2023-04-01T01:44:13;69.82;;;39.60;;
26742;SDS011;14341;51.256;22.478;2023-04-01T01:47:17;66.10;;;39.45;;
26742;SDS011;14341;51.256;22.478;2023-04-01T01:50:22;62.22;;;38.40;;
26742;SDS011;14341;51.256;22.478;2023-04-01T01:53:28;64.28;;;38.90;;
26742;SDS011;14341;51.256;22.478;2023-04-01T01:56:32;63.05;;;37.88;;
26742;SDS011;14341;51.256;22.478;2023-04-01T01:59:38;61.90;;;36.60;;
26742;SDS011;14341;51.256;22.478;2023-04-01T02:02:44;57.17;;;35.60;;
26742;SDS011;14341;51.256;22.478;2023-04-01T02:05:50;60.35;;;37.97;;
26742;SDS011;14341;51.256;22.478;2023-04-01T02:08:59;59.35;;;35.85;;
26742;SDS011;14341;51.256;22.478;2023-04-01T02:12:05;61.47;;;36.72;;
26742;SDS011;14341;51.256;22.478;2023-04-01T02:15:14;55.40;;;35.33;;
26742;SDS011;14341;51.256;22.478;2023-04-01T02:18:19;61.90;;;35.85;;
26742;SDS011;14341;51.256;22.478;2023-04-01T02:21:23;60.17;;;37.58;;
26742;SDS011;14341;51.256;22.478;2023-04-01T02:24:31;59.10;;;37.38;;
26742;SDS011;14341;51.256;22.478;2023-04-01T02:27:38;63.33;;;37.40;;
26742;SDS011;14341;51.256;22.478;2023-04-01T02:30:42;60.85;;;39.30;;
26742;SDS011;14341;51.256;22.478;2023-04-01T02:33:47;63.10;;;38.70;;
26742;SDS011;14341;51.256;22.478;2023-04-01T02:36:50;60.58;;;38.70;;
26742;SDS011;14341;51.256;22.478;2023-04-01T02:39:58;65.25;;;40.55;;
26742;SDS011;14341;51.256;22.478;2023-04-01T02:43:03;63.60;;;39.20;;
26742;SDS011;14341;51.256;22.478;2023-04-01T02:46:06;64.03;;;41.53;;
26742;SDS011;14341;51.256;22.478;2023-04-01T02:49:10;62.00;;;41.35;;
26742;SDS011;14341;51.256;22.478;2023-04-01T02:52:13;63.30;;;40.92;;
26742;SDS011;14341;51.256;22.478;2023-04-01T02:55:18;66.55;;;40.13;;
26742;SDS011;14341;51.256;22.478;2023-04-01T02:58:22;67.45;;;41.55;;
26742;SDS011;14341;51.256;22.478;2023-04-01T03:01:25;71.72;;;41.50;;
26742;SDS011;14341;51.256;22.478;2023-04-01T03:04:29;70.18;;;42.35;;
26742;SDS011;14341;51.256;22.478;2023-04-01T03:07:32;70.45;;;42.60;;
26742;SDS011;14341;51.256;22.478;2023-04-01T03:10:37;75.82;;;42.70;;
26742;SDS011;14341;51.256;22.478;2023-04-01T03:13:41;72.97;;;42.08;;
26742;SDS011;14341;51.256;22.478;2023-04-01T03:16:44;74.88;;;42.75;;
26742;SDS011;14341;51.256;22.478;2023-04-01T03:19:48;68.00;;;42.80;;
26742;SDS011;14341;51.256;22.478;2023-04-01T03:22:51;67.53;;;41.17;;
26742;SDS011;14341;51.256;22.478;2023-04-01T03:25:55;72.22;;;42.55;;
26742;SDS011;14341;51.256;22.478;2023-04-01T03:28:59;71.25;;;43.75;;
26742;SDS011;14341;51.256;22.478;2023-04-01T03:32:02;75.60;;;44.42;;
26742;SDS011;14341;51.256;22.478;2023-04-01T03:35:06;70.88;;;42.75;;
26742;SDS011;14341;51.256;22.478;2023-04-01T03:38:11;75.93;;;43.75;;
26742;SDS011;14341;51.256;22.478;2023-04-01T03:41:16;74.30;;;44.92;;
26742;SDS011;14341;51.256;22.478;2023-04-01T03:44:20;75.28;;;43.42;;
26742;SDS011;14341;51.256;22.478;2023-04-01T03:47:26;79.15;;;45.20;;
26742;SDS011;14341;51.256;22.478;2023-04-01T03:50:30;77.35;;;45.70;;
26742;SDS011;14341;51.256;22.478;2023-04-01T03:53:33;73.93;;;44.25;;
26742;SDS011;14341;51.256;22.478;2023-04-01T03:56:40;74.32;;;46.08;;
26742;SDS011;14341;51.256;22.478;2023-04-01T03:59:43;76.55;;;46.45;;
26742;SDS011;14341;51.256;22.478;2023-04-01T04:02:47;75.07;;;45.92;;
26742;SDS011;14341;51.256;22.478;2023-04-01T04:05:55;79.85;;;47.13;;
26742;SDS011;14341;51.256;22.478;2023-04-01T04:08:58;80.10;;;46.75;;
26742;SDS011;14341;51.256;22.478;2023-04-01T04:12:05;83.40;;;48.95;;
26742;SDS011;14341;51.256;22.478;2023-04-01T04:15:09;79.00;;;46.30;;
26742;SDS011;14341;51.256;22.478;2023-04-01T04:18:13;79.07;;;46.15;;
26742;SDS011;14341;51.256;22.478;2023-04-01T04:21:16;78.80;;;46.33;;
26742;SDS011;14341;51.256;22.478;2023-04-01T04:24:20;78.57;;;45.42;;
26742;SDS011;14341;51.256;22.478;2023-04-01T04:27:45;82.53;;;47.92;;
26742;SDS011;14341;51.256;22.478;2023-04-01T04:30:49;80.10;;;47.95;;
26742;SDS011;14341;51.256;22.478;2023-04-01T04:33:52;75.78;;;47.78;;
26742;SDS011;14341;51.256;22.478;2023-04-01T04:36:56;70.38;;;43.83;;
26742;SDS011;14341;51.256;22.478;2023-04-01T04:40:04;75.53;;;45.47;;
26742;SDS011;14341;51.256;22.478;2023-04-01T04:43:11;75.78;;;46.40;;
26742;SDS011;14341;51.256;22.478;2023-04-01T04:46:16;71.05;;;44.35;;
26742;SDS011;14341;51.256;22.478;2023-04-01T04:49:21;75.68;;;44.75;;
26742;SDS011;14341;51.256;22.478;2023-04-01T04:52:25;67.50;;;42.88;;
26742;SDS011;14341;51.256;22.478;2023-04-01T04:55:28;64.88;;;40.97;;
26742;SDS011;14341;51.256;22.478;2023-04-01T04:58:53;67.18;;;40.72;;
26742;SDS011;14341;51.256;22.478;2023-04-01T05:02:01;63.10;;;39.88;;
26742;SDS011;14341;51.256;22.478;2023-04-01T05:05:04;63.42;;;39.17;;
26742;SDS011;14341;51.256;22.478;2023-04-01T05:08:08;62.03;;;39.20;;
26742;SDS011;14341;51.256;22.478;2023-04-01T05:11:12;59.50;;;38.80;;
26742;SDS011;14341;51.256;22.478;2023-04-01T05:14:19;58.00;;;37.13;;
26742;SDS011;14341;51.256;22.478;2023-04-01T05:17:34;55.75;;;36.67;;
26742;SDS011;14341;51.256;22.478;2023-04-01T05:20:38;53.45;;;35.67;;
26742;SDS011;14341;51.256;22.478;2023-04-01T05:23:43;52.83;;;35.25;;
26742;SDS011;14341;51.256;22.478;2023-04-01T05:26:47;50.33;;;34.47;;
26742;SDS011;14341;51.256;22.478;2023-04-01T05:29:53;48.88;;;32.92;;
26742;SDS011;14341;51.256;22.478;2023-04-01T05:33:14;53.55;;;31.75;;
26742;SDS011;14341;51.256;22.478;2023-04-01T05:36:17;49.28;;;32.35;;
26742;SDS011;14341;51.256;22.478;2023-04-01T05:39:23;50.08;;;31.95;;
26742;SDS011;14341;51.256;22.478;2023-04-01T05:42:27;47.55;;;31.17;;
26742;SDS011;14341;51.256;22.478;2023-04-01T05:45:32;41.60;;;29.98;;
26742;SDS011;14341;51.256;22.478;2023-04-01T05:48:48;43.78;;;29.35;;
26742;SDS011;14341;51.256;22.478;2023-04-01T05:51:54;42.35;;;29.75;;
26742;SDS011;14341;51.256;22.478;2023-04-01T05:54:57;44.53;;;29.20;;
26742;SDS011;14341;51.256;22.478;2023-04-01T05:58:04;43.10;;;28.17;;
26742;SDS011;14341;51.256;22.478;2023-04-01T06:01:12;41.10;;;27.92;;
26742;SDS011;14341;51.256;22.478;2023-04-01T06:04:21;41.58;;;27.80;;
26742;SDS011;14341;51.256;22.478;2023-04-01T06:07:24;42.85;;;28.42;;
26742;SDS011;14341;51.256;22.478;2023-04-01T06:10:35;43.13;;;29.70;;
26742;SDS011;14341;51.256;22.478;2023-04-01T06:13:52;43.95;;;30.17;;
26742;SDS011;14341;51.256;22.478;2023-04-01T06:17:23;42.55;;;28.83;;
26742;SDS011;14341;51.256;22.478;2023-04-01T06:20:34;45.15;;;29.40;;
26742;SDS011;14341;51.256;22.478;2023-04-01T06:23:47;43.80;;;30.75;;
26742;SDS011;14341;51.256;22.478;2023-04-01T06:27:03;53.40;;;33.88;;
26742;SDS011;14341;51.256;22.478;2023-04-01T06:30:24;47.55;;;33.28;;
26742;SDS011;14341;51.256;22.478;2023-04-01T06:33:43;49.70;;;33.15;;
26742;SDS011;14341;51.256;22.478;2023-04-01T06:37:11;48.53;;;31.33;;
26742;SDS011;14341;51.256;22.478;2023-04-01T06:43:55;46.00;;;31.10;;
26742;SDS011;14341;51.256;22.478;2023-04-01T06:47:36;45.45;;;31.45;;
26742;SDS011;14341;51.256;22.478;2023-04-01T06:51:15;45.17;;;29.90;;
26742;SDS011;14341;51.256;22.478;2023-04-01T06:54:47;42.35;;;29.23;;
26742;SDS011;14341;51.256;22.478;2023-04-01T06:58:19;41.03;;;28.50;;
26742;SDS011;14341;51.256;22.478;2023-04-01T07:01:26;36.83;;;27.02;;
26742;SDS011;14341;51.256;22.478;2023-04-01T07:04:37;35.95;;;25.98;;
26742;SDS011;14341;51.256;22.478;2023-04-01T07:07:46;37.15;;;26.60;;
26742;SDS011;14341;51.256;22.478;2023-04-01T07:10:53;34.88;;;25.55;;
26742;SDS011;14341;51.256;22.478;2023-04-01T07:14:19;56.10;;;29.42;;
26742;SDS011;14341;51.256;22.478;2023-04-01T07:17:27;30.38;;;23.73;;
26742;SDS011;14341;51.256;22.478;2023-04-01T07:20:36;32.92;;;24.00;;
26742;SDS011;14341;51.256;22.478;2023-04-01T07:23:45;31.98;;;23.95;;
26742;SDS011;14341;51.256;22.478;2023-04-01T07:27:15;32.22;;;23.02;;
26742;SDS011;14341;51.256;22.478;2023-04-01T07:30:20;26.88;;;19.08;;
26742;SDS011;14341;51.256;22.478;2023-04-01T07:33:28;31.92;;;19.75;;
26742;SDS011;14341;51.256;22.478;2023-04-01T07:36:42;27.27;;;19.00;;
26742;SDS011;14341;51.256;22.478;2023-04-01T07:39:54;22.83;;;18.48;;
26742;SDS011;14341;51.256;22.478;2023-04-01T07:43:13;26.20;;;17.98;;
26742;SDS011;14341;51.256;22.478;2023-04-01T07:46:48;24.60;;;17.50;;
26742;SDS011;14341;51.256;22.478;2023-04-01T07:50:00;24.58;;;17.60;;
26742;SDS011;14341;51.256;22.478;2023-04-01T07:53:13;25.42;;;16.73;;
26742;SDS011;14341;51.256;22.478;2023-04-01T07:56:29;22.15;;;15.95;;
26742;SDS011;14341;51.256;22.478;2023-04-01T08:03:03;19.45;;;14.15;;
26742;SDS011;14341;51.256;22.478;2023-04-01T08:06:18;18.75;;;13.68;;
26742;SDS011;14341;51.256;22.478;2023-04-01T08:12:58;26.02;;;13.05;;
26742;SDS011;14341;51.256;22.478;2023-04-01T08:16:37;15.95;;;12.23;;
26742;SDS011;14341;51.256;22.478;2023-04-01T08:19:56;17.92;;;12.30;;
26742;SDS011;14341;51.256;22.478;2023-04-01T08:23:14;16.13;;;12.20;;
26742;SDS011;14341;51.256;22.478;2023-04-01T08:26:22;16.90;;;12.27;;
26742;SDS011;14341;51.256;22.478;2023-04-01T08:29:34;16.98;;;12.93;;
26742;SDS011;14341;51.256;22.478;2023-04-01T08:32:44;18.45;;;12.88;;
26742;SDS011;14341;51.256;22.478;2023-04-01T08:35:55;16.85;;;13.43;;
26742;SDS011;14341;51.256;22.478;2023-04-01T08:39:03;16.83;;;13.02;;
26742;SDS011;14341;51.256;22.478;2023-04-01T08:42:18;17.17;;;12.93;;
26742;SDS011;14341;51.256;22.478;2023-04-01T08:49:22;16.60;;;12.15;;
26742;SDS011;14341;51.256;22.478;2023-04-01T08:53:11;15.63;;;11.70;;
26742;SDS011;14341;51.256;22.478;2023-04-01T08:56:23;16.05;;;11.45;;
26742;SDS011;14341;51.256;22.478;2023-04-01T08:59:40;14.85;;;9.93;;
26742;SDS011;14341;51.256;22.478;2023-04-01T09:03:35;12.32;;;9.00;;
26742;SDS011;14341;51.256;22.478;2023-04-01T09:06:49;14.13;;;9.73;;
26742;SDS011;14341;51.256;22.478;2023-04-01T09:10:18;14.80;;;10.43;;
26742;SDS011;14341;51.256;22.478;2023-04-01T09:24:35;13.75;;;9.38;;
26742;SDS011;14341;51.256;22.478;2023-04-01T09:27:53;8.98;;;6.53;;
26742;SDS011;14341;51.256;22.478;2023-04-01T09:31:28;25.77;;;18.35;;
26742;SDS011;14341;51.256;22.478;2023-04-01T09:35:05;7.38;;;4.70;;
26742;SDS011;14341;51.256;22.478;2023-04-01T09:42:07;8.85;;;5.22;;
26742;SDS011;14341;51.256;22.478;2023-04-01T09:46:18;6.78;;;5.30;;
26742;SDS011;14341;51.256;22.478;2023-04-01T09:49:50;6.45;;;5.50;;
26742;SDS011;14341;51.256;22.478;2023-04-01T10:01:57;9.98;;;7.00;;
26742;SDS011;14341;51.256;22.478;2023-04-01T10:05:48;10.73;;;7.10;;
26742;SDS011;14341;51.256;22.478;2023-04-01T10:09:43;12.65;;;7.88;;
26742;SDS011;14341;51.256;22.478;2023-04-01T10:13:26;11.65;;;7.72;;
26742;SDS011;14341;51.256;22.478;2023-04-01T10:17:00;15.27;;;8.75;;
26742;SDS011;14341;51.256;22.478;2023-04-01T10:20:34;10.75;;;8.75;;
26742;SDS011;14341;51.256;22.478;2023-04-01T10:24:16;15.98;;;8.80;;
26742;SDS011;14341;51.256;22.478;2023-04-01T10:27:49;10.40;;;7.43;;
26742;SDS011;14341;51.256;22.478;2023-04-01T10:47:13;11.38;;;8.65;;
26742;SDS011;14341;51.256;22.478;2023-04-01T10:50:45;11.55;;;8.35;;
26742;SDS011;14341;51.256;22.478;2023-04-01T10:54:13;9.80;;;8.00;;
26742;SDS011;14341;51.256;22.478;2023-04-01T10:57:47;16.52;;;8.40;;
26742;SDS011;14341;51.256;22.478;2023-04-01T11:01:38;12.30;;;9.68;;
26742;SDS011;14341;51.256;22.478;2023-04-01T11:05:36;13.60;;;9.32;;
26742;SDS011;14341;51.256;22.478;2023-04-01T11:09:07;13.18;;;9.50;;
26742;SDS011;14341;51.256;22.478;2023-04-01T11:27:48;11.45;;;8.02;;
26742;SDS011;14341;51.256;22.478;2023-04-01T11:31:20;11.90;;;9.35;;
26742;SDS011;14341;51.256;22.478;2023-04-01T11:34:37;11.93;;;8.48;;
26742;SDS011;14341;51.256;22.478;2023-04-01T11:37:57;15.02;;;9.90;;
26742;SDS011;14341;51.256;22.478;2023-04-01T11:41:37;11.13;;;8.07;;
26742;SDS011;14341;51.256;22.478;2023-04-01T11:45:12;13.63;;;7.93;;
26742;SDS011;14341;51.256;22.478;2023-04-01T11:48:31;16.00;;;8.88;;
26742;SDS011;14341;51.256;22.478;2023-04-01T11:52:00;13.57;;;8.82;;
26742;SDS011;14341;51.256;22.478;2023-04-01T11:55:23;11.52;;;7.85;;
26742;SDS011;14341;51.256;22.478;2023-04-01T11:58:42;11.48;;;7.63;;
26742;SDS011;14341;51.256;22.478;2023-04-01T12:02:20;11.13;;;6.97;;
26742;SDS011;14341;51.256;22.478;2023-04-01T12:05:42;10.85;;;5.63;;
26742;SDS011;14341;51.256;22.478;2023-04-01T12:08:52;6.32;;;3.40;;
26742;SDS011;14341;51.256;22.478;2023-04-01T12:12:10;4.07;;;2.50;;
26742;SDS011;14341;51.256;22.478;2023-04-01T12:15:21;3.88;;;2.25;;
26742;SDS011;14341;51.256;22.478;2023-04-01T12:18:33;3.42;;;2.05;;
26742;SDS011;14341;51.256;22.478;2023-04-01T12:21:42;3.20;;;2.63;;
26742;SDS011;14341;51.256;22.478;2023-04-01T12:24:54;7.32;;;4.50;;
26742;SDS011;14341;51.256;22.478;2023-04-01T12:28:10;12.10;;;6.53;;
26742;SDS011;14341;51.256;22.478;2023-04-01T12:31:26;14.57;;;7.40;;
26742;SDS011;14341;51.256;22.478;2023-04-01T12:34:42;11.80;;;5.95;;
26742;SDS011;14341;51.256;22.478;2023-04-01T12:38:04;10.88;;;6.85;;
26742;SDS011;14341;51.256;22.478;2023-04-01T12:41:24;2.97;;;2.35;;
26742;SDS011;14341;51.256;22.478;2023-04-01T12:44:38;4.82;;;2.58;;
26742;SDS011;14341;51.256;22.478;2023-04-01T12:47:55;4.53;;;2.60;;
26742;SDS011;14341;51.256;22.478;2023-04-01T12:51:35;7.15;;;4.03;;
26742;SDS011;14341;51.256;22.478;2023-04-01T12:55:23;2.97;;;2.40;;
26742;SDS011;14341;51.256;22.478;2023-04-01T12:58:59;4.80;;;2.60;;
26742;SDS011;14341;51.256;22.478;2023-04-01T13:02:25;4.63;;;3.58;;
26742;SDS011;14341;51.256;22.478;2023-04-01T13:09:32;5.22;;;3.85;;
26742;SDS011;14341;51.256;22.478;2023-04-01T13:12:52;6.72;;;4.50;;
26742;SDS011;14341;51.256;22.478;2023-04-01T13:16:21;6.13;;;3.75;;
26742;SDS011;14341;51.256;22.478;2023-04-01T13:19:30;6.60;;;4.38;;
26742;SDS011;14341;51.256;22.478;2023-04-01T13:22:45;7.07;;;4.10;;
26742;SDS011;14341;51.256;22.478;2023-04-01T13:26:02;6.32;;;4.47;;
26742;SDS011;14341;51.256;22.478;2023-04-01T13:29:16;6.57;;;4.57;;
26742;SDS011;14341;51.256;22.478;2023-04-01T13:32:26;6.72;;;4.80;;
26742;SDS011;14341;51.256;22.478;2023-04-01T13:35:41;8.45;;;5.40;;
26742;SDS011;14341;51.256;22.478;2023-04-01T13:39:00;21.50;;;12.05;;
26742;SDS011;14341;51.256;22.478;2023-04-01T13:42:24;20.00;;;12.20;;
26742;SDS011;14341;51.256;22.478;2023-04-01T13:45:33;16.08;;;11.35;;
26742;SDS011;14341;51.256;22.478;2023-04-01T13:48:50;14.60;;;9.77;;
26742;SDS011;14341;51.256;22.478;2023-04-01T13:55:49;20.08;;;11.90;;
26742;SDS011;14341;51.256;22.478;2023-04-01T13:59:03;16.95;;;12.50;;
26742;SDS011;14341;51.256;22.478;2023-04-01T14:06:01;16.85;;;11.80;;
26742;SDS011;14341;51.256;22.478;2023-04-01T14:12:47;21.55;;;12.40;;
26742;SDS011;14341;51.256;22.478;2023-04-01T14:16:02;16.95;;;13.23;;
26742;SDS011;14341;51.256;22.478;2023-04-01T14:19:20;29.77;;;21.45;;
26742;SDS011;14341;51.256;22.478;2023-04-01T14:22:35;42.33;;;31.85;;
26742;SDS011;14341;51.256;22.478;2023-04-01T14:25:48;43.95;;;30.98;;
26742;SDS011;14341;51.256;22.478;2023-04-01T14:29:10;38.30;;;27.38;;
26742;SDS011;14341;51.256;22.478;2023-04-01T14:32:27;31.20;;;22.67;;
26742;SDS011;14341;51.256;22.478;2023-04-01T14:35:37;35.80;;;21.88;;
26742;SDS011;14341;51.256;22.478;2023-04-01T14:38:53;41.17;;;26.30;;
26742;SDS011;14341;51.256;22.478;2023-04-01T14:42:09;52.25;;;29.95;;
26742;SDS011;14341;51.256;22.478;2023-04-01T14:45:42;33.45;;;22.77;;
26742;SDS011;14341;51.256;22.478;2023-04-01T14:49:02;61.33;;;39.75;;
26742;SDS011;14341;51.256;22.478;2023-04-01T14:52:17;85.72;;;59.22;;
26742;SDS011;14341;51.256;22.478;2023-04-01T14:55:31;46.60;;;32.30;;
26742;SDS011;14341;51.256;22.478;2023-04-01T14:58:44;33.17;;;21.83;;
26742;SDS011;14341;51.256;22.478;2023-04-01T15:01:50;35.80;;;22.90;;
26742;SDS011;14341;51.256;22.478;2023-04-01T15:04:58;30.50;;;19.40;;
26742;SDS011;14341;51.256;22.478;2023-04-01T15:08:17;32.78;;;23.08;;
26742;SDS011;14341;51.256;22.478;2023-04-01T15:11:29;29.38;;;21.15;;
26742;SDS011;14341;51.256;22.478;2023-04-01T15:14:49;33.45;;;21.83;;
26742;SDS011;14341;51.256;22.478;2023-04-01T15:18:07;37.08;;;24.85;;
26742;SDS011;14341;51.256;22.478;2023-04-01T15:21:17;45.80;;;28.52;;
26742;SDS011;14341;51.256;22.478;2023-04-01T15:24:29;43.15;;;27.83;;
26742;SDS011;14341;51.256;22.478;2023-04-01T15:27:48;38.83;;;25.00;;
26742;SDS011;14341;51.256;22.478;2023-04-01T15:30:56;43.67;;;27.10;;
26742;SDS011;14341;51.256;22.478;2023-04-01T15:34:11;48.92;;;32.13;;
26742;SDS011;14341;51.256;22.478;2023-04-01T15:37:29;45.22;;;31.80;;
26742;SDS011;14341;51.256;22.478;2023-04-01T15:40:42;40.53;;;29.85;;
26742;SDS011;14341;51.256;22.478;2023-04-01T15:43:51;37.92;;;27.02;;
26742;SDS011;14341;51.256;22.478;2023-04-01T15:46:57;47.88;;;29.20;;
26742;SDS011;14341;51.256;22.478;2023-04-01T15:50:06;52.70;;;27.25;;
26742;SDS011;14341;51.256;22.478;2023-04-01T15:53:43;53.60;;;27.25;;
26742;SDS011;14341;51.256;22.478;2023-04-01T15:57:03;32.53;;;20.50;;
26742;SDS011;14341;51.256;22.478;2023-04-01T16:00:24;36.15;;;22.90;;
26742;SDS011;14341;51.256;22.478;2023-04-01T16:03:36;44.80;;;26.50;;
26742;SDS011;14341;51.256;22.478;2023-04-01T16:06:58;32.65;;;19.77;;
26742;SDS011;14341;51.256;22.478;2023-04-01T16:13:48;20.02;;;11.13;;
26742;SDS011;14341;51.256;22.478;2023-04-01T16:17:15;15.55;;;10.50;;
26742;SDS011;14341;51.256;22.478;2023-04-01T16:20:35;16.52;;;9.82;;
26742;SDS011;14341;51.256;22.478;2023-04-01T16:23:48;14.93;;;9.68;;
26742;SDS011;14341;51.256;22.478;2023-04-01T16:26:54;15.00;;;9.23;;
26742;SDS011;14341;51.256;22.478;2023-04-01T16:33:34;17.92;;;10.20;;
26742;SDS011;14341;51.256;22.478;2023-04-01T16:36:44;19.52;;;13.18;;
26742;SDS011;14341;51.256;22.478;2023-04-01T16:39:52;24.73;;;16.33;;
26742;SDS011;14341;51.256;22.478;2023-04-01T16:43:06;79.82;;;51.00;;
26742;SDS011;14341;51.256;22.478;2023-04-01T16:46:26;48.75;;;30.55;;
26742;SDS011;14341;51.256;22.478;2023-04-01T16:49:36;51.55;;;37.50;;
26742;SDS011;14341;51.256;22.478;2023-04-01T16:52:48;32.63;;;23.58;;
26742;SDS011;14341;51.256;22.478;2023-04-01T16:56:04;25.55;;;16.40;;
26742;SDS011;14341;51.256;22.478;2023-04-01T16:59:15;28.95;;;17.60;;
26742;SDS011;14341;51.256;22.478;2023-04-01T17:02:25;29.13;;;17.55;;
26742;SDS011;14341;51.256;22.478;2023-04-01T17:05:38;27.08;;;17.00;;
26742;SDS011;14341;51.256;22.478;2023-04-01T17:08:59;87.35;;;47.58;;
26742;SDS011;14341;51.256;22.478;2023-04-01T17:12:15;80.30;;;40.03;;
26742;SDS011;14341;51.256;22.478;2023-04-01T17:15:25;62.00;;;31.58;;
26742;SDS011;14341;51.256;22.478;2023-04-01T17:18:37;66.57;;;35.25;;
26742;SDS011;14341;51.256;22.478;2023-04-01T17:21:56;58.45;;;31.98;;
26742;SDS011;14341;51.256;22.478;2023-04-01T17:25:09;72.38;;;39.72;;
26742;SDS011;14341;51.256;22.478;2023-04-01T17:28:27;105.50;;;54.00;;
26742;SDS011;14341;51.256;22.478;2023-04-01T17:31:44;123.00;;;60.92;;
26742;SDS011;14341;51.256;22.478;2023-04-01T17:34:54;81.35;;;44.13;;
26742;SDS011;14341;51.256;22.478;2023-04-01T17:38:13;74.68;;;40.67;;
26742;SDS011;14341;51.256;22.478;2023-04-01T17:41:25;99.40;;;50.95;;
26742;SDS011;14341;51.256;22.478;2023-04-01T17:44:44;91.25;;;46.30;;
26742;SDS011;14341;51.256;22.478;2023-04-01T17:48:01;80.18;;;44.95;;
26742;SDS011;14341;51.256;22.478;2023-04-01T17:51:20;82.25;;;48.90;;
26742;SDS011;14341;51.256;22.478;2023-04-01T17:54:34;88.15;;;50.55;;
26742;SDS011;14341;51.256;22.478;2023-04-01T17:57:45;75.85;;;45.72;;
26742;SDS011;14341;51.256;22.478;2023-04-01T18:01:01;61.83;;;36.30;;
26742;SDS011;14341;51.256;22.478;2023-04-01T18:07:47;43.72;;;24.88;;
26742;SDS011;14341;51.256;22.478;2023-04-01T18:11:11;74.82;;;38.58;;
26742;SDS011;14341;51.256;22.478;2023-04-01T18:14:28;73.28;;;47.08;;
26742;SDS011;14341;51.256;22.478;2023-04-01T18:17:55;62.63;;;38.08;;
26742;SDS011;14341;51.256;22.478;2023-04-01T18:21:08;79.68;;;44.95;;
26742;SDS011;14341;51.256;22.478;2023-04-01T18:24:22;63.25;;;35.65;;
26742;SDS011;14341;51.256;22.478;2023-04-01T18:27:33;69.65;;;43.53;;
26742;SDS011;14341;51.256;22.478;2023-04-01T18:33:50;76.93;;;46.08;;
26742;SDS011;14341;51.256;22.478;2023-04-01T18:37:11;86.30;;;56.45;;
26742;SDS011;14341;51.256;22.478;2023-04-01T18:40:20;84.05;;;51.28;;
26742;SDS011;14341;51.256;22.478;2023-04-01T18:43:31;90.80;;;51.83;;
26742;SDS011;14341;51.256;22.478;2023-04-01T18:46:41;131.75;;;67.90;;
26742;SDS011;14341;51.256;22.478;2023-04-01T18:49:54;108.82;;;61.63;;
26742;SDS011;14341;51.256;22.478;2023-04-01T18:53:08;88.10;;;51.20;;
26742;SDS011;14341;51.256;22.478;2023-04-01T18:56:23;106.57;;;58.50;;
26742;SDS011;14341;51.256;22.478;2023-04-01T18:59:32;102.80;;;58.08;;
26742;SDS011;14341;51.256;22.478;2023-04-01T19:02:42;106.68;;;61.95;;
26742;SDS011;14341;51.256;22.478;2023-04-01T19:05:52;116.40;;;66.47;;
26742;SDS011;14341;51.256;22.478;2023-04-01T19:09:00;86.35;;;49.63;;
26742;SDS011;14341;51.256;22.478;2023-04-01T19:12:26;118.72;;;64.93;;
26742;SDS011;14341;51.256;22.478;2023-04-01T19:15:41;146.88;;;83.50;;
26742;SDS011;14341;51.256;22.478;2023-04-01T19:18:55;123.97;;;68.18;;
26742;SDS011;14341;51.256;22.478;2023-04-01T19:22:13;79.40;;;44.03;;
26742;SDS011;14341;51.256;22.478;2023-04-01T19:25:35;70.95;;;39.45;;
26742;SDS011;14341;51.256;22.478;2023-04-01T19:28:43;68.07;;;39.17;;
26742;SDS011;14341;51.256;22.478;2023-04-01T19:32:00;107.25;;;66.97;;
26742;SDS011;14341;51.256;22.478;2023-04-01T19:35:19;95.68;;;55.92;;
26742;SDS011;14341;51.256;22.478;2023-04-01T19:38:30;83.30;;;49.33;;
26742;SDS011;14341;51.256;22.478;2023-04-01T19:41:44;72.05;;;44.72;;
26742;SDS011;14341;51.256;22.478;2023-04-01T19:44:57;56.63;;;35.50;;
26742;SDS011;14341;51.256;22.478;2023-04-01T19:48:18;47.38;;;31.23;;
26742;SDS011;14341;51.256;22.478;2023-04-01T19:51:41;61.28;;;40.70;;
26742;SDS011;14341;51.256;22.478;2023-04-01T19:57:58;43.35;;;27.80;;
26742;SDS011;14341;51.256;22.478;2023-04-01T20:01:10;40.83;;;27.08;;
26742;SDS011;14341;51.256;22.478;2023-04-01T20:04:22;42.92;;;26.67;;
26742;SDS011;14341;51.256;22.478;2023-04-01T20:07:32;43.47;;;28.27;;
26742;SDS011;14341;51.256;22.478;2023-04-01T20:10:42;43.30;;;27.90;;
26742;SDS011;14341;51.256;22.478;2023-04-01T20:13:56;48.40;;;30.60;;
26742;SDS011;14341;51.256;22.478;2023-04-01T20:17:16;56.92;;;31.80;;
26742;SDS011;14341;51.256;22.478;2023-04-01T20:23:39;46.55;;;28.58;;
26742;SDS011;14341;51.256;22.478;2023-04-01T20:26:47;44.78;;;29.27;;
26742;SDS011;14341;51.256;22.478;2023-04-01T20:30:05;43.22;;;29.27;;